Trammel, Kentucky
Current Conditions -  °F | °C
As of 1:53 AM on Monday 22 Dec 2014 (Local Time) from KBWG Reporting Station
Broken Clouds Broken Clouds  
Wind Chill: 32°   Ceiling: 9500
Heat Index: 32°   Visibility: 10mi
Dew Point: 26°   Wind: 0mph
Humidity: 79%   Direction: NA
Pressure: 30"   Gusts: NA
Location:  36.7794°N, 86.196°W
Report Text: KBWG 220753Z AUTO 00000KT 10SM BKN095 00/M03 A3000 RMK AO2 SLP160 T00001033
Loading
Personal Weather Stations






























Interactive Weather Map New forecast layout! Learn more

10-Day Weather Forecast

Advertisements
Track Severe Weather on mobile